Terminal Aerodrome Forecast
Issued by NWS

Home | Current Version | Previous Version | Text Only | Print | Product List | Glossary On
Versions: 1 2 3 4 5 6 7 8 9 10 11 12
000
FTUS45 KABQ 172300
TAFGUP
TAF
KGUP 172323Z 1800/1824 26010KT P6SM FEW050
     FM180200 VRB03KT P6SM SKC
     FM181600 20011KT P6SM FEW200=

USA.gov is the U.S. government's official web portal to all federal, state and local government web resources and services.